Time;durP1;ratioP1;P1;durP2;ratioP2;P2;SDS_P1;SDS_P2;PMS_P1;PMS_P2;Temp;Humidity;BMP_temperature;BMP_pressure;BME280_temperature;BME280_humidity;BME280_pressure;Samples;Min_cycle;Max_cycle;Signal;HPM_P1;HPM_P2
2021/12/27 00:00:01;;;;;;;8.60;6.38;;;7.90;99.90;;;;;;5013812;28;20454;-78
2021/12/27 00:02:26;;;;;;;6.30;5.70;;;7.90;99.90;;;;;;5009682;28;20115;-82
2021/12/27 00:04:52;;;;;;;7.30;6.70;;;7.90;99.90;;;;;;5007968;28;20061;-79
2021/12/27 00:07:17;;;;;;;7.22;6.63;;;7.80;99.90;;;;;;5022647;28;20018;-80
2021/12/27 00:09:43;;;;;;;6.88;6.28;;;7.90;99.90;;;;;;5016952;28;20036;-79
2021/12/27 00:12:09;;;;;;;7.38;6.68;;;7.80;99.90;;;;;;5016109;28;20030;-79
2021/12/27 00:14:35;;;;;;;6.72;5.97;;;7.80;99.90;;;;;;5005204;28;20033;-79
2021/12/27 00:17:00;;;;;;;8.35;6.68;;;7.80;99.90;;;;;;5013098;28;20090;-78
2021/12/27 00:19:26;;;;;;;6.43;5.82;;;7.80;99.90;;;;;;5006251;28;20022;-80
2021/12/27 00:21:52;;;;;;;6.97;6.30;;;7.80;99.90;;;;;;5016598;28;20651;-79
2021/12/27 00:24:17;;;;;;;6.63;5.95;;;7.80;99.90;;;;;;5019927;28;20036;-78
2021/12/27 00:26:44;;;;;;;6.85;6.15;;;7.80;99.90;;;;;;5013684;28;20028;-77
2021/12/27 00:29:10;;;;;;;7.88;7.05;;;7.80;99.90;;;;;;5016801;28;20033;-79
2021/12/27 00:31:36;;;;;;;7.25;6.55;;;7.80;99.90;;;;;;5006401;28;20496;-80
2021/12/27 00:34:01;;;;;;;7.82;6.75;;;7.80;99.90;;;;;;5030373;28;20062;-80
2021/12/27 00:36:27;;;;;;;7.35;6.65;;;7.70;99.90;;;;;;5024459;28;20516;-79
2021/12/27 00:38:53;;;;;;;9.57;8.65;;;7.80;99.90;;;;;;5015401;28;20080;-79
2021/12/27 00:41:18;;;;;;;10.98;9.35;;;7.90;99.90;;;;;;5019163;28;20025;-79
2021/12/27 00:43:44;;;;;;;10.65;9.60;;;7.80;99.90;;;;;;5019296;28;20030;-78
2021/12/27 00:46:10;;;;;;;13.43;10.55;;;7.80;99.90;;;;;;5041890;28;20398;-80
2021/12/27 00:48:35;;;;;;;11.13;9.27;;;7.70;99.90;;;;;;5015409;28;20552;-77
2021/12/27 00:51:01;;;;;;;11.15;10.02;;;7.60;99.90;;;;;;5027872;28;20034;-78
2021/12/27 00:53:26;;;;;;;11.65;9.88;;;7.60;99.90;;;;;;5017111;28;20026;-79
2021/12/27 00:55:52;;;;;;;10.95;9.43;;;7.60;99.90;;;;;;5037487;28;20075;-78
2021/12/27 00:58:17;;;;;;;10.18;9.00;;;7.60;99.90;;;;;;5029022;28;20075;-78
2021/12/27 01:00:43;;;;;;;13.55;10.55;;;7.50;99.90;;;;;;5012443;28;20113;-78
2021/12/27 01:03:08;;;;;;;10.98;9.50;;;7.50;99.90;;;;;;5027507;28;20033;-79
2021/12/27 01:05:34;;;;;;;10.88;9.88;;;7.50;99.90;;;;;;5026084;28;20025;-78
2021/12/27 01:08:00;;;;;;;11.68;10.05;;;7.50;99.90;;;;;;5013571;28;20548;-79
2021/12/27 01:16:10;;;;;;;13.43;10.38;;;7.60;99.90;;;;;;5026722;28;20045;-78
2021/12/27 01:18:38;;;;;;;11.07;9.98;;;7.50;99.90;;;;;;5012096;28;20112;-78
2021/12/27 01:21:04;;;;;;;10.10;8.70;;;7.50;99.90;;;;;;4995889;28;20093;-79
2021/12/27 01:23:29;;;;;;;11.45;8.85;;;7.50;99.90;;;;;;4978643;28;20431;-79
2021/12/27 01:25:55;;;;;;;9.48;7.45;;;7.50;99.90;;;;;;4978159;28;20035;-79
2021/12/27 01:28:21;;;;;;;8.43;7.05;;;7.60;99.90;;;;;;4978503;28;20029;-79
2021/12/27 01:30:48;;;;;;;8.40;7.60;;;7.60;99.90;;;;;;4974028;28;20067;-78
2021/12/27 01:33:20;;;;;;;9.07;7.32;;;7.70;99.90;;;;;;4974529;28;21991;-78
2021/12/27 01:35:46;;;;;;;7.75;6.70;;;7.60;99.90;;;;;;4973494;28;20155;-78
2021/12/27 01:38:13;;;;;;;8.25;7.50;;;7.70;99.90;;;;;;4975323;28;20022;-79
2021/12/27 01:40:41;;;;;;;7.45;6.70;;;7.80;99.90;;;;;;4975730;28;20161;-80
2021/12/27 01:43:14;;;;;;;8.18;7.45;;;7.80;99.90;;;;;;4975304;28;20479;-77
2021/12/27 01:45:45;;;;;;;8.73;6.90;;;7.90;99.90;;;;;;4969951;28;20075;-79
2021/12/27 01:48:13;;;;;;;7.75;7.03;;;7.90;99.90;;;;;;4977342;28;20023;-79
2021/12/27 01:50:42;;;;;;;8.10;7.30;;;7.90;99.90;;;;;;4974453;28;20609;-79
2021/12/27 01:53:09;;;;;;;8.38;7.57;;;7.90;99.90;;;;;;4974724;28;20549;-80
2021/12/27 01:55:36;;;;;;;8.07;6.68;;;7.90;99.90;;;;;;4975041;28;20109;-80
2021/12/27 01:58:02;;;;;;;7.20;6.50;;;7.90;99.90;;;;;;4974943;28;20029;-79
2021/12/27 02:00:28;;;;;;;8.05;7.03;;;7.90;99.90;;;;;;4978639;28;20034;-79
2021/12/27 02:02:53;;;;;;;10.68;7.45;;;7.90;99.90;;;;;;4978090;28;20030;-79
2021/12/27 02:05:19;;;;;;;8.30;7.43;;;7.90;99.90;;;;;;4979530;28;20023;-78
2021/12/27 02:07:44;;;;;;;8.07;6.68;;;8.00;99.90;;;;;;4981209;28;20027;-78
2021/12/27 02:10:11;;;;;;;6.75;6.15;;;8.10;99.90;;;;;;4982752;28;20022;-79
2021/12/27 02:12:37;;;;;;;8.95;6.75;;;8.20;99.90;;;;;;4979710;28;20029;-78
2021/12/27 02:15:07;;;;;;;7.63;6.82;;;8.20;99.90;;;;;;4977554;28;20110;-79
2021/12/27 02:17:35;;;;;;;7.90;6.75;;;8.20;99.90;;;;;;4976833;28;20042;-79
2021/12/27 02:20:00;;;;;;;8.60;7.25;;;8.10;99.90;;;;;;4977095;28;20113;-80
2021/12/27 02:22:28;;;;;;;8.30;7.30;;;8.10;99.90;;;;;;4974530;28;20085;-79
2021/12/27 02:24:54;;;;;;;7.50;6.80;;;8.00;99.90;;;;;;4976015;28;20399;-79
2021/12/27 02:27:19;;;;;;;9.63;7.38;;;8.00;99.90;;;;;;4975950;28;20015;-80
2021/12/27 02:29:45;;;;;;;7.53;6.80;;;7.90;99.90;;;;;;4974228;28;20038;-78
2021/12/27 02:32:10;;;;;;;7.30;6.60;;;7.80;99.90;;;;;;4976974;28;20027;-80
2021/12/27 02:34:36;;;;;;;7.72;6.53;;;7.80;99.90;;;;;;4974653;28;20038;-79
2021/12/27 02:37:02;;;;;;;8.88;7.97;;;7.80;99.90;;;;;;4972899;28;20394;-78
2021/12/27 02:39:29;;;;;;;8.13;7.32;;;7.80;99.90;;;;;;4970568;28;20555;-79
2021/12/27 02:41:55;;;;;;;7.30;6.60;;;7.70;99.90;;;;;;4975382;28;20118;-79
2021/12/27 02:44:20;;;;;;;7.88;7.10;;;7.70;99.90;;;;;;4973100;28;20054;-79
2021/12/27 02:46:46;;;;;;;7.43;6.35;;;7.70;99.90;;;;;;4975597;28;20023;-78
2021/12/27 02:49:11;;;;;;;8.80;7.30;;;7.70;99.90;;;;;;4973127;28;20033;-78
2021/12/27 02:51:37;;;;;;;7.72;6.18;;;7.60;99.90;;;;;;4972102;28;20031;-78
2021/12/27 02:54:02;;;;;;;6.88;6.05;;;7.70;99.90;;;;;;4967981;28;20043;-79
2021/12/27 02:56:29;;;;;;;6.68;6.07;;;7.70;99.90;;;;;;4973933;28;20453;-79
2021/12/27 02:58:55;;;;;;;7.40;6.70;;;7.70;99.90;;;;;;4969797;28;20061;-80
2021/12/27 03:01:23;;;;;;;9.48;6.20;;;7.60;99.90;;;;;;4967953;28;20022;-79
2021/12/27 03:03:49;;;;;;;7.50;6.43;;;7.70;99.90;;;;;;4972724;28;20050;-78
2021/12/27 03:06:15;;;;;;;6.88;5.95;;;7.60;99.90;;;;;;4975478;28;20101;-80
2021/12/27 03:08:42;;;;;;;6.63;5.50;;;7.60;99.90;;;;;;4979161;28;20583;-77
2021/12/27 03:11:10;;;;;;;6.32;5.68;;;7.70;99.90;;;;;;4974222;28;20022;-77
2021/12/27 03:13:37;;;;;;;5.68;5.07;;;7.80;99.90;;;;;;4974438;28;20439;-78
2021/12/27 03:16:07;;;;;;;5.78;5.07;;;7.80;99.90;;;;;;4974095;28;20031;-80
2021/12/27 03:18:38;;;;;;;5.20;4.70;;;7.80;99.90;;;;;;4973217;28;20467;-78
2021/12/27 03:21:05;;;;;;;5.55;4.93;;;7.80;99.90;;;;;;4973697;28;20038;-79
2021/12/27 03:23:31;;;;;;;6.78;4.75;;;7.70;99.90;;;;;;4971313;28;20086;-80
2021/12/27 03:25:57;;;;;;;5.22;4.68;;;7.70;99.90;;;;;;4974643;28;20419;-80
2021/12/27 03:28:23;;;;;;;5.75;4.85;;;7.70;99.90;;;;;;4975853;28;20023;-78
2021/12/27 03:30:49;;;;;;;4.55;4.15;;;7.70;99.90;;;;;;4976588;28;20043;-80
2021/12/27 03:33:15;;;;;;;5.30;4.72;;;7.70;99.90;;;;;;4972737;28;20026;-79
2021/12/27 03:35:51;;;;;;;4.72;4.13;;;7.80;99.90;;;;;;4974444;28;20034;-79
2021/12/27 03:38:18;;;;;;;4.45;3.90;;;7.80;99.90;;;;;;4974312;28;20017;-79
2021/12/27 03:40:45;;;;;;;4.88;4.38;;;7.80;99.90;;;;;;4981293;28;20023;-79
2021/12/27 03:43:12;;;;;;;4.38;3.92;;;7.90;99.90;;;;;;4973720;28;20034;-82
2021/12/27 03:45:39;;;;;;;4.57;4.18;;;7.80;99.90;;;;;;4973145;28;20029;-81
2021/12/27 03:48:07;;;;;;;5.20;4.60;;;7.80;99.90;;;;;;4974693;28;20035;-82
2021/12/27 03:50:33;;;;;;;4.85;4.35;;;7.80;99.90;;;;;;4976699;28;20058;-82
2021/12/27 03:52:59;;;;;;;5.63;4.07;;;7.70;99.90;;;;;;4974838;28;20027;-81
2021/12/27 03:55:27;;;;;;;4.65;4.22;;;7.70;99.90;;;;;;4975218;28;20135;-79
2021/12/27 03:58:04;;;;;;;4.93;4.45;;;7.70;99.90;;;;;;4973699;28;20484;-82
2021/12/27 04:00:47;;;;;;;4.05;3.65;;;7.70;99.90;;;;;;4972805;28;20019;-81
2021/12/27 04:03:14;;;;;;;4.55;4.15;;;7.70;99.90;;;;;;4976574;28;20127;-80
2021/12/27 04:05:41;;;;;;;5.68;4.57;;;7.70;99.90;;;;;;4975353;28;20026;-81
2021/12/27 04:08:09;;;;;;;5.05;4.55;;;7.70;99.90;;;;;;4975580;28;20359;-82
2021/12/27 04:10:38;;;;;;;4.20;3.78;;;7.60;99.90;;;;;;4974700;28;20372;-82
2021/12/27 04:13:05;;;;;;;4.97;4.47;;;7.60;99.90;;;;;;4976360;28;20026;-81
2021/12/27 04:15:32;;;;;;;5.50;5.00;;;7.60;99.90;;;;;;4980291;28;20030;-82
2021/12/27 04:17:58;;;;;;;5.55;4.95;;;7.60;99.90;;;;;;4981959;28;20034;-80
2021/12/27 04:20:24;;;;;;;5.68;5.10;;;7.50;99.90;;;;;;4982079;28;20015;-81
2021/12/27 04:22:50;;;;;;;6.38;5.28;;;7.50;99.90;;;;;;4983785;28;20026;-80
2021/12/27 04:25:17;;;;;;;5.88;5.05;;;7.40;99.90;;;;;;4980502;28;20479;-81
2021/12/27 04:27:44;;;;;;;6.35;5.75;;;7.40;99.90;;;;;;4980264;28;20153;-82
2021/12/27 04:30:10;;;;;;;5.47;4.97;;;7.40;99.90;;;;;;4981720;28;20540;-84
2021/12/27 04:32:36;;;;;;;4.88;4.32;;;7.40;99.90;;;;;;4981655;28;20488;-83
2021/12/27 04:35:02;;;;;;;5.57;5.07;;;7.40;99.90;;;;;;4982518;28;20043;-81
2021/12/27 04:37:31;;;;;;;3.30;3.00;;;7.40;99.90;;;;;;4977875;28;20387;-82
2021/12/27 04:40:00;;;;;;;3.42;3.13;;;7.50;99.90;;;;;;4977406;28;20093;-81
2021/12/27 04:42:31;;;;;;;3.95;3.65;;;7.50;99.90;;;;;;4980904;28;20022;-81
2021/12/27 04:44:57;;;;;;;;;;;7.60;99.90;;;;;;4979724;28;20352;-80
2021/12/27 04:47:23;;;;;;;3.63;3.22;;;7.60;99.90;;;;;;4979002;28;20366;-81
2021/12/27 04:49:49;;;;;;;4.35;3.67;;;7.60;99.90;;;;;;4979068;28;20023;-80
2021/12/27 04:52:15;;;;;;;4.63;4.20;;;7.70;99.90;;;;;;4975736;28;20020;-81
2021/12/27 04:54:41;;;;;;;5.72;5.00;;;7.70;99.90;;;;;;4978197;28;20023;-80
2021/12/27 04:57:08;;;;;;;6.35;4.97;;;7.80;99.90;;;;;;4979501;28;20028;-79
2021/12/27 04:59:34;;;;;;;7.57;5.15;;;7.70;99.90;;;;;;4978504;28;20034;-80
2021/12/27 05:02:00;;;;;;;6.35;5.50;;;7.60;99.90;;;;;;4998521;28;20015;-79
2021/12/27 05:04:26;;;;;;;6.10;5.13;;;7.60;99.90;;;;;;4999761;28;20035;-78
2021/12/27 05:06:51;;;;;;;7.43;5.22;;;7.70;99.90;;;;;;4999830;28;20019;-78
2021/12/27 05:09:17;;;;;;;7.60;5.45;;;7.70;99.90;;;;;;5000754;28;20688;-79
2021/12/27 05:11:43;;;;;;;6.57;5.20;;;7.70;99.90;;;;;;4994886;28;20027;-80
2021/12/27 05:14:09;;;;;;;7.07;5.72;;;7.70;99.90;;;;;;4978876;28;20038;-81
2021/12/27 05:16:37;;;;;;;6.15;5.53;;;7.60;99.90;;;;;;4982986;28;20105;-81
2021/12/27 05:19:03;;;;;;;7.25;4.68;;;7.50;99.90;;;;;;4992093;28;20026;-81
2021/12/27 05:21:29;;;;;;;5.13;4.00;;;7.50;99.90;;;;;;4987291;28;20026;-81
2021/12/27 05:23:55;;;;;;;4.93;4.28;;;7.50;99.90;;;;;;4984530;28;20114;-79
2021/12/27 05:26:21;;;;;;;5.70;4.32;;;7.50;99.90;;;;;;4981343;28;20034;-80
2021/12/27 05:28:47;;;;;;;5.05;4.22;;;7.50;99.90;;;;;;4992924;28;20034;-80
2021/12/27 05:31:13;;;;;;;4.95;4.45;;;7.50;99.90;;;;;;4986818;28;20027;-81
2021/12/27 05:33:39;;;;;;;7.57;4.22;;;7.50;99.90;;;;;;4985365;28;20030;-81
2021/12/27 05:36:04;;;;;;;4.32;3.92;;;7.60;99.90;;;;;;4983543;28;20027;-81
2021/12/27 05:38:30;;;;;;;4.78;4.03;;;7.50;99.90;;;;;;4998418;28;20025;-79
2021/12/27 05:40:56;;;;;;;4.50;4.10;;;7.50;99.90;;;;;;4999014;28;20082;-79
2021/12/27 05:43:23;;;;;;;5.15;3.40;;;7.50;99.90;;;;;;4998388;28;20057;-80
2021/12/27 05:45:49;;;;;;;4.93;3.47;;;7.60;99.90;;;;;;4990308;28;20041;-82
2021/12/27 05:48:15;;;;;;;5.45;3.72;;;7.70;99.90;;;;;;4984538;28;20035;-82
2021/12/27 05:50:42;;;;;;;6.05;4.78;;;7.80;99.90;;;;;;4982598;28;20030;-82
2021/12/27 05:53:08;;;;;;;6.68;5.00;;;8.00;99.90;;;;;;4978739;28;20063;-82
2021/12/27 05:55:33;;;;;;;5.03;4.55;;;8.20;99.90;;;;;;4989845;28;20022;-83
2021/12/27 05:58:00;;;;;;;4.25;3.85;;;8.30;99.90;;;;;;4989171;28;20263;-80
2021/12/27 06:00:26;;;;;;;7.95;4.00;;;8.10;99.90;;;;;;4999388;28;20019;-79
2021/12/27 06:02:53;;;;;;;5.43;4.93;;;8.10;99.90;;;;;;4999019;28;20087;-79
2021/12/27 06:05:19;;;;;;;6.32;4.60;;;8.20;99.90;;;;;;4998943;28;20019;-79
2021/12/27 06:07:44;;;;;;;4.78;4.38;;;8.10;99.90;;;;;;4999149;28;20022;-79
2021/12/27 06:10:10;;;;;;;6.43;4.60;;;7.80;99.90;;;;;;4998274;28;20030;-78
2021/12/27 06:12:37;;;;;;;5.75;5.03;;;7.70;99.90;;;;;;4982115;28;20042;-81
2021/12/27 06:15:03;;;;;;;5.03;4.53;;;7.60;99.90;;;;;;4979020;28;20026;-80
2021/12/27 06:17:31;;;;;;;4.70;4.25;;;7.60;99.90;;;;;;4979714;28;20027;-81
2021/12/27 06:19:57;;;;;;;5.72;5.22;;;7.50;99.90;;;;;;5010638;28;20117;-82
2021/12/27 06:22:23;;;;;;;6.03;5.53;;;7.50;99.90;;;;;;4978324;28;20023;-81
2021/12/27 06:24:49;;;;;;;5.25;4.75;;;7.70;99.90;;;;;;4977794;28;20023;-81
2021/12/27 06:27:14;;;;;;;8.05;5.63;;;7.80;99.90;;;;;;4978639;28;20042;-82
2021/12/27 06:29:40;;;;;;;9.38;5.30;;;7.60;99.90;;;;;;4977769;28;20113;-83
2021/12/27 06:32:06;;;;;;;6.28;5.68;;;7.50;99.90;;;;;;4974556;28;20062;-81
2021/12/27 06:34:31;;;;;;;6.45;5.82;;;7.60;99.90;;;;;;4987916;28;20090;-80
2021/12/27 06:36:57;;;;;;;6.03;5.53;;;7.50;99.90;;;;;;4981109;28;20031;-81
2021/12/27 06:39:22;;;;;;;5.90;5.40;;;7.50;99.90;;;;;;4979678;28;20050;-82
2021/12/27 06:41:48;;;;;;;6.63;6.03;;;7.40;99.90;;;;;;4979820;28;20036;-83
2021/12/27 06:44:13;;;;;;;6.28;5.63;;;7.30;99.90;;;;;;4979122;28;20118;-81
2021/12/27 06:46:39;;;;;;;8.57;6.53;;;7.40;99.90;;;;;;4974753;28;20122;-82
2021/12/27 06:49:04;;;;;;;5.90;5.40;;;7.30;99.90;;;;;;4971966;28;20020;-82
2021/12/27 06:51:30;;;;;;;5.90;5.40;;;7.10;99.90;;;;;;4979415;28;20451;-80
2021/12/27 06:53:56;;;;;;;6.00;5.40;;;7.10;99.90;;;;;;4976663;28;20034;-81
2021/12/27 06:56:21;;;;;;;7.43;6.15;;;6.80;99.90;;;;;;4979117;28;20479;-83
2021/12/27 06:58:47;;;;;;;6.95;5.43;;;6.60;99.90;;;;;;4973482;28;20084;-81
2021/12/27 07:01:13;;;;;;;6.13;5.57;;;6.40;99.90;;;;;;4977037;28;20023;-83
2021/12/27 07:03:38;;;;;;;6.70;6.05;;;6.40;99.90;;;;;;4977831;28;20058;-80
2021/12/27 07:06:04;;;;;;;6.40;5.80;;;6.30;99.90;;;;;;4976150;28;20054;-80
2021/12/27 07:08:30;;;;;;;6.25;5.65;;;6.20;99.90;;;;;;4973398;28;20030;-81
2021/12/27 07:10:55;;;;;;;6.47;5.88;;;6.20;99.90;;;;;;4974068;28;20038;-82
2021/12/27 07:13:21;;;;;;;6.82;5.63;;;6.10;99.90;;;;;;4971224;28;20087;-82
2021/12/27 07:15:46;;;;;;;6.57;5.97;;;6.10;99.90;;;;;;4976228;28;20105;-81
2021/12/27 07:18:20;;;;;;;7.07;6.40;;;6.00;99.90;;;;;;4974255;28;20032;-81
2021/12/27 07:20:46;;;;;;;7.32;6.60;;;6.00;99.90;;;;;;4971078;28;20105;-81
2021/12/27 07:23:11;;;;;;;8.70;6.50;;;6.00;99.90;;;;;;4975639;28;20130;-82
2021/12/27 07:25:37;;;;;;;7.18;6.47;;;6.00;99.90;;;;;;4975862;28;20031;-81
2021/12/27 07:28:03;;;;;;;7.95;6.65;;;6.00;99.90;;;;;;4976713;28;20074;-81
2021/12/27 07:30:29;;;;;;;6.93;6.00;;;6.10;99.90;;;;;;4981469;28;20034;-81
2021/12/27 07:32:55;;;;;;;7.78;6.75;;;6.00;99.90;;;;;;4972656;28;20065;-80
2021/12/27 07:35:21;;;;;;;7.03;6.30;;;6.10;99.90;;;;;;4978428;28;20027;-80
2021/12/27 07:37:46;;;;;;;7.97;7.07;;;6.10;99.90;;;;;;4974450;28;20050;-83
2021/12/27 07:40:12;;;;;;;6.68;6.05;;;6.10;99.90;;;;;;4993940;28;20042;-78
2021/12/27 07:42:38;;;;;;;6.88;6.25;;;6.20;99.90;;;;;;4982311;28;20062;-80
2021/12/27 07:45:04;;;;;;;7.05;5.97;;;6.30;99.90;;;;;;4976463;28;20053;-82
2021/12/27 07:47:30;;;;;;;7.13;6.43;;;6.40;99.90;;;;;;4974262;28;20030;-84
2021/12/27 07:49:56;;;;;;;6.18;5.60;;;6.60;99.90;;;;;;4972872;28;20026;-79
2021/12/27 07:52:21;;;;;;;5.28;4.75;;;6.70;99.90;;;;;;4975664;28;20027;-81
2021/12/27 07:54:47;;;;;;;5.15;4.65;;;6.70;99.90;;;;;;4974956;28;20034;-80
2021/12/27 07:57:13;;;;;;;6.10;5.50;;;6.80;99.90;;;;;;4977051;28;20489;-84
2021/12/27 07:59:39;;;;;;;5.55;5.05;;;6.90;99.90;;;;;;4975759;28;20082;-81
2021/12/27 08:02:04;;;;;;;6.10;5.50;;;6.90;99.90;;;;;;4975511;28;20038;-82
2021/12/27 08:04:30;;;;;;;7.68;5.55;;;6.90;99.90;;;;;;4977347;28;20031;-83
2021/12/27 08:06:56;;;;;;;6.80;5.43;;;7.00;99.90;;;;;;4974905;28;20050;-81
2021/12/27 08:09:24;;;;;;;5.65;4.95;;;7.00;99.90;;;;;;4972502;28;20027;-81
2021/12/27 08:11:50;;;;;;;7.13;5.03;;;7.10;99.90;;;;;;4975051;28;20487;-81
2021/12/27 08:14:15;;;;;;;6.88;5.43;;;7.30;99.90;;;;;;4976936;28;20039;-81
2021/12/27 08:16:41;;;;;;;5.68;5.18;;;7.40;99.90;;;;;;4973415;28;20055;-81
2021/12/27 08:19:07;;;;;;;7.35;5.65;;;7.50;99.90;;;;;;4974471;28;20055;-83
2021/12/27 08:21:33;;;;;;;7.45;5.00;;;7.60;99.90;;;;;;4973560;28;20026;-82
2021/12/27 08:23:59;;;;;;;6.20;5.05;;;7.50;99.90;;;;;;4971171;28;20079;-81
2021/12/27 08:26:24;;;;;;;7.07;5.63;;;7.40;99.90;;;;;;4970285;28;20019;-82
2021/12/27 08:28:52;;;;;;;6.40;5.72;;;7.30;99.90;;;;;;4977770;28;20037;-81
2021/12/27 08:31:18;;;;;;;7.15;5.72;;;7.30;99.90;;;;;;4978715;28;20026;-81
2021/12/27 08:33:44;;;;;;;6.63;5.28;;;7.30;99.90;;;;;;4970818;28;20085;-80
2021/12/27 08:36:09;;;;;;;6.68;5.10;;;7.30;99.90;;;;;;4970487;28;20030;-82
2021/12/27 08:38:35;;;;;;;5.45;4.85;;;7.30;99.90;;;;;;4971581;28;20654;-82
2021/12/27 08:41:01;;;;;;;7.30;4.70;;;7.40;99.90;;;;;;4971621;28;20309;-82
2021/12/27 08:43:26;;;;;;;8.55;5.07;;;7.30;99.90;;;;;;4977057;28;20022;-82
2021/12/27 08:45:53;;;;;;;5.75;5.05;;;7.50;99.90;;;;;;4984512;28;20019;-79
2021/12/27 08:48:19;;;;;;;5.93;4.97;;;7.70;99.90;;;;;;4992823;28;20015;-79
2021/12/27 08:50:44;;;;;;;5.28;4.63;;;8.00;99.90;;;;;;4987703;28;20094;-81
2021/12/27 08:53:10;;;;;;;5.25;4.80;;;8.00;99.90;;;;;;4980347;28;20019;-82
2021/12/27 08:55:37;;;;;;;6.50;4.80;;;8.30;99.90;;;;;;4979101;28;20030;-83
2021/12/27 08:58:04;;;;;;;5.43;4.97;;;8.50;99.90;;;;;;4976004;28;20238;-82
2021/12/27 09:00:31;;;;;;;5.20;4.70;;;8.60;99.90;;;;;;4974890;28;20069;-82
2021/12/27 09:02:57;;;;;;;5.15;4.70;;;8.80;99.90;;;;;;4970884;28;20071;-81
2021/12/27 09:05:22;;;;;;;5.90;4.93;;;8.80;99.90;;;;;;4976965;28;20034;-83
2021/12/27 09:07:48;;;;;;;5.38;4.85;;;8.90;99.90;;;;;;4977413;28;20029;-82
2021/12/27 09:10:14;;;;;;;4.88;4.45;;;9.00;99.90;;;;;;4979391;28;20023;-82
2021/12/27 09:12:40;;;;;;;5.40;4.90;;;8.80;99.90;;;;;;4972728;28;20023;-81
2021/12/27 09:15:10;;;;;;;5.40;4.90;;;8.70;99.90;;;;;;4979165;28;20035;-81
2021/12/27 09:17:36;;;;;;;5.68;5.18;;;8.90;99.90;;;;;;4977078;28;20057;-82
2021/12/27 09:20:04;;;;;;;4.90;4.50;;;8.90;99.90;;;;;;4975242;28;20035;-83
2021/12/27 09:22:30;;;;;;;5.68;5.18;;;8.90;99.90;;;;;;4961393;28;20038;-83
2021/12/27 09:24:56;;;;;;;5.15;4.65;;;8.70;99.90;;;;;;4976665;28;20045;-80
2021/12/27 09:27:21;;;;;;;5.03;4.53;;;8.80;99.90;;;;;;4977178;28;20061;-81
2021/12/27 09:29:47;;;;;;;5.03;4.53;;;8.80;99.90;;;;;;4972089;28;20042;-82
2021/12/27 09:32:13;;;;;;;6.47;5.40;;;8.80;99.90;;;;;;4974828;28;20083;-82
2021/12/27 09:34:39;;;;;;;6.05;5.28;;;8.90;99.90;;;;;;4977253;28;20066;-82
2021/12/27 09:37:06;;;;;;;5.25;4.78;;;8.80;99.90;;;;;;4975240;28;20680;-82
2021/12/27 09:39:32;;;;;;;5.55;5.05;;;8.60;99.90;;;;;;4988648;28;20030;-78
2021/12/27 09:41:57;;;;;;;5.75;5.10;;;8.50;99.90;;;;;;5006031;28;20043;-81
2021/12/27 09:44:23;;;;;;;5.50;4.18;;;8.60;99.90;;;;;;4975281;28;20027;-79
2021/12/27 09:46:49;;;;;;;6.35;4.85;;;8.70;99.90;;;;;;4969282;28;20473;-78
2021/12/27 09:49:17;;;;;;;5.32;4.82;;;8.90;99.90;;;;;;4975345;28;20026;-77
2021/12/27 09:51:44;;;;;;;4.30;3.90;;;9.20;99.90;;;;;;4974969;28;20047;-77
2021/12/27 09:54:09;;;;;;;5.72;3.72;;;9.30;99.90;;;;;;4978889;28;20087;-78
2021/12/27 09:56:35;;;;;;;4.93;4.00;;;9.40;99.90;;;;;;4976252;28;20043;-79
2021/12/27 09:59:00;;;;;;;4.45;3.97;;;9.40;99.90;;;;;;4973075;28;20134;-80
2021/12/27 10:01:26;;;;;;;5.88;4.70;;;9.40;99.90;;;;;;4974994;28;20031;-77
2021/12/27 10:03:57;;;;;;;4.88;4.05;;;9.20;99.90;;;;;;4974387;28;20541;-79
2021/12/27 10:06:25;;;;;;;4.55;3.22;;;9.50;99.90;;;;;;4974412;28;20027;-78
2021/12/27 10:08:53;;;;;;;4.38;3.97;;;9.70;99.90;;;;;;4977225;28;20023;-78
2021/12/27 10:11:22;;;;;;;4.85;3.88;;;9.50;99.90;;;;;;4969522;28;20038;-77
2021/12/27 10:14:12;;;;;;;3.58;3.28;;;9.20;99.90;;;;;;4973732;28;20150;-79
2021/12/27 10:16:47;;;;;;;4.55;3.65;;;9.50;99.90;;;;;;4970355;28;20027;-79
2021/12/27 10:19:17;;;;;;;6.05;4.35;;;9.70;99.90;;;;;;4975230;28;20034;-77
2021/12/27 10:21:45;;;;;;;4.00;2.88;;;9.60;99.90;;;;;;4973872;28;20130;-78
2021/12/27 10:24:16;;;;;;;4.15;2.88;;;9.50;99.90;;;;;;4972396;28;20034;-77
2021/12/27 10:26:44;;;;;;;4.35;2.90;;;9.40;99.90;;;;;;4975264;28;20019;-78
2021/12/27 10:29:31;;;;;;;3.22;2.90;;;9.60;99.90;;;;;;4977687;28;20027;-78
2021/12/27 10:32:10;;;;;;;3.78;3.17;;;9.80;99.90;;;;;;4974530;28;20031;-78
2021/12/27 10:34:52;;;;;;;3.05;2.78;;;9.60;99.90;;;;;;4974355;28;20090;-77
2021/12/27 10:37:18;;;;;;;2.83;2.63;;;9.60;99.90;;;;;;4975702;28;20419;-78
2021/12/27 10:40:05;;;;;;;3.53;2.95;;;9.80;99.90;;;;;;4976133;28;20054;-78
2021/12/27 10:42:35;;;;;;;4.75;3.10;;;9.80;99.90;;;;;;4963944;28;20030;-79
2021/12/27 10:45:05;;;;;;;3.65;3.25;;;9.80;99.90;;;;;;4985504;28;20054;-79
2021/12/27 10:47:32;;;;;;;3.20;2.90;;;9.80;99.90;;;;;;4974752;28;20406;-78
2021/12/27 10:50:13;;;;;;;3.88;3.03;;;10.00;99.90;;;;;;4970920;28;20034;-78
2021/12/27 10:52:51;;;;;;;4.60;3.58;;;10.00;99.90;;;;;;4969895;28;20086;-79
2021/12/27 10:55:20;;;;;;;3.90;3.20;;;9.70;99.90;;;;;;4968066;28;20054;-79
2021/12/27 10:57:46;;;;;;;3.95;3.47;;;9.60;99.90;;;;;;4968605;28;20038;-79
2021/12/27 11:00:26;;;;;;;4.47;3.38;;;9.60;99.90;;;;;;4976143;28;20035;-79
2021/12/27 11:02:52;;;;;;;3.40;3.10;;;9.70;99.90;;;;;;4969999;28;20360;-77
2021/12/27 11:05:23;;;;;;;4.30;3.15;;;10.00;99.90;;;;;;4973775;28;20475;-80
2021/12/27 11:07:50;;;;;;;5.97;3.42;;;9.90;99.90;;;;;;4986595;28;20407;-80
2021/12/27 11:10:16;;;;;;;4.35;3.85;;;9.80;99.90;;;;;;4974322;28;20096;-79
2021/12/27 11:12:42;;;;;;;3.78;3.33;;;9.90;99.90;;;;;;4975130;28;20046;-79
2021/12/27 11:15:10;;;;;;;2.97;2.67;;;9.90;99.90;;;;;;4976896;28;20622;-79
2021/12/27 11:17:37;;;;;;;3.03;2.60;;;9.90;99.90;;;;;;4970554;28;20113;-79
2021/12/27 11:20:05;;;;;;;2.55;2.35;;;10.10;99.90;;;;;;4976201;28;20120;-78
2021/12/27 11:22:30;;;;;;;4.45;3.17;;;10.10;99.90;;;;;;4977384;28;20517;-78
2021/12/27 11:24:56;;;;;;;3.90;3.58;;;10.10;99.90;;;;;;4973032;28;20035;-79
2021/12/27 11:27:22;;;;;;;4.80;4.32;;;10.10;99.90;;;;;;4975077;28;20027;-77
2021/12/27 11:30:05;;;;;;;4.03;3.67;;;10.00;99.90;;;;;;4973925;28;20087;-79
2021/12/27 11:32:31;;;;;;;3.90;3.30;;;10.00;99.90;;;;;;4971016;28;20033;-78
2021/12/27 11:34:59;;;;;;;3.65;3.22;;;10.00;99.90;;;;;;4970702;28;20105;-78
2021/12/27 11:37:39;;;;;;;4.18;3.60;;;10.20;99.90;;;;;;4975788;28;20030;-79
2021/12/27 11:40:11;;;;;;;4.45;4.00;;;10.40;99.90;;;;;;4973699;28;20102;-79
2021/12/27 11:42:58;;;;;;;4.15;3.75;;;10.40;99.90;;;;;;4974470;28;20027;-78
2021/12/27 11:45:39;;;;;;;4.03;3.63;;;10.30;99.90;;;;;;4982082;28;20027;-79
2021/12/27 11:48:14;;;;;;;3.88;3.40;;;10.50;99.90;;;;;;4975960;28;20043;-78
2021/12/27 11:51:03;;;;;;;3.33;3.03;;;10.50;99.90;;;;;;4972226;28;20022;-78
2021/12/27 11:53:43;;;;;;;4.45;3.85;;;10.50;99.90;;;;;;4982272;28;20178;-79
2021/12/27 11:56:09;;;;;;;3.92;3.53;;;10.80;99.90;;;;;;4983070;28;20117;-79
2021/12/27 11:58:37;;;;;;;3.80;3.40;;;10.80;99.90;;;;;;4977419;28;20019;-80
2021/12/27 12:01:26;;;;;;;4.00;3.50;;;10.50;99.90;;;;;;4973470;28;20052;-79
2021/12/27 12:04:00;;;;;;;3.15;2.85;;;10.50;99.90;;;;;;4976119;28;20039;-78
2021/12/27 12:06:41;;;;;;;3.50;3.08;;;10.90;99.90;;;;;;4974157;28;20113;-79
2021/12/27 12:09:18;;;;;;;4.82;2.95;;;11.10;99.90;;;;;;4977567;28;20077;-80
2021/12/27 12:12:03;;;;;;;3.28;3.03;;;11.10;99.90;;;;;;4973969;28;20082;-79
2021/12/27 12:14:36;;;;;;;4.97;3.38;;;11.00;99.90;;;;;;4974449;28;20054;-78
2021/12/27 12:17:05;;;;;;;3.58;3.20;;;11.00;99.90;;;;;;4972251;28;20089;-80
2021/12/27 12:19:39;;;;;;;3.50;3.20;;;10.80;99.90;;;;;;4975771;28;20035;-80
2021/12/27 12:22:06;;;;;;;3.55;3.25;;;10.80;99.90;;;;;;4975737;28;20561;-77
2021/12/27 12:24:32;;;;;;;4.05;3.38;;;10.70;99.90;;;;;;4991268;28;20038;-77
2021/12/27 12:27:09;;;;;;;3.78;3.45;;;10.60;99.90;;;;;;4986515;28;20037;-79
2021/12/27 12:29:45;;;;;;;4.18;3.85;;;10.50;99.90;;;;;;4988202;28;20015;-79
2021/12/27 12:32:13;;;;;;;4.90;4.13;;;10.50;99.90;;;;;;4989374;28;20046;-78
2021/12/27 12:34:40;;;;;;;4.70;4.30;;;10.50;99.90;;;;;;4975100;28;20114;-81
2021/12/27 12:37:14;;;;;;;4.22;3.40;;;10.40;99.90;;;;;;4976368;28;20027;-79
2021/12/27 12:39:49;;;;;;;4.35;3.58;;;10.30;99.90;;;;;;4979651;28;20065;-81
2021/12/27 12:42:19;;;;;;;4.75;4.18;;;10.20;99.90;;;;;;4978292;28;20026;-79
2021/12/27 12:45:00;;;;;;;4.43;4.03;;;10.20;99.90;;;;;;4975648;28;20029;-79
2021/12/27 12:47:36;;;;;;;;;;;10.10;99.90;;;;;;4975210;28;20031;-79
2021/12/27 12:50:16;;;;;;;4.25;3.50;;;10.10;99.90;;;;;;4978147;28;19910;-79
2021/12/27 12:52:59;;;;;;;3.50;3.20;;;10.00;99.90;;;;;;4975770;28;20182;-79
2021/12/27 12:55:27;;;;;;;4.40;3.80;;;10.10;99.90;;;;;;4971096;28;20027;-80
2021/12/27 12:57:53;;;;;;;3.85;3.28;;;10.20;99.90;;;;;;4976121;28;20031;-79
2021/12/27 13:00:30;;;;;;;5.50;3.22;;;10.30;99.90;;;;;;4978943;28;20034;-78
2021/12/27 13:03:13;;;;;;;4.63;3.25;;;10.30;99.90;;;;;;4967383;28;20035;-79